Time;durP1;ratioP1;P1;durP2;ratioP2;P2;SDS_P1;SDS_P2;PMS_P1;PMS_P2;Temp;Humidity;BMP_temperature;BMP_pressure;BME280_temperature;BME280_humidity;BME280_pressure;Samples;Min_cycle;Max_cycle;Signal;HPM_P1;HPM_P2
2022/07/12 00:00:45;;;;;;;10.20;5.75;;;12.50;97.30;;;;;;5041906;28;20083;-72
2022/07/12 00:03:10;;;;;;;10.25;5.47;;;12.40;97.30;;;;;;5045793;28;20053;-72
2022/07/12 00:05:36;;;;;;;7.80;4.75;;;12.40;97.20;;;;;;5048643;28;20361;-72
2022/07/12 00:08:01;;;;;;;9.63;5.00;;;12.30;97.20;;;;;;5043397;28;20471;-72
2022/07/12 00:10:27;;;;;;;9.68;5.35;;;12.30;97.20;;;;;;5044468;28;20037;-72
2022/07/12 00:12:54;;;;;;;10.35;4.68;;;12.30;97.30;;;;;;5042782;28;20037;-72
2022/07/12 00:15:20;;;;;;;11.88;5.57;;;12.30;97.40;;;;;;5045026;28;20467;-72
2022/07/12 00:17:45;;;;;;;13.40;5.68;;;12.30;97.50;;;;;;5043335;28;20033;-72
2022/07/12 00:20:11;;;;;;;14.18;6.28;;;12.20;97.40;;;;;;5046786;28;20135;-72
2022/07/12 00:22:37;;;;;;;14.48;5.20;;;12.20;97.50;;;;;;5044471;28;20048;-72
2022/07/12 00:25:03;;;;;;;17.85;5.80;;;12.20;97.50;;;;;;5043123;28;20052;-72
2022/07/12 00:27:28;;;;;;;15.48;5.28;;;12.20;97.60;;;;;;5050703;28;20033;-72
2022/07/12 00:29:54;;;;;;;10.93;4.95;;;12.20;97.70;;;;;;5042507;28;20029;-72
2022/07/12 00:32:20;;;;;;;10.38;5.03;;;12.20;97.70;;;;;;5045623;28;20430;-72
2022/07/12 00:34:45;;;;;;;11.10;4.85;;;12.10;97.50;;;;;;5042066;28;20063;-72
2022/07/12 00:37:11;;;;;;;9.10;4.43;;;12.00;97.30;;;;;;5044916;28;20032;-72
2022/07/12 00:39:36;;;;;;;8.60;4.55;;;12.00;97.30;;;;;;5044567;28;20122;-72
2022/07/12 00:42:02;;;;;;;7.47;3.75;;;11.90;97.20;;;;;;5041861;28;20068;-72
2022/07/12 00:44:30;;;;;;;7.80;4.00;;;11.80;96.90;;;;;;5040393;28;20044;-72
2022/07/12 00:46:57;;;;;;;8.90;4.35;;;11.80;96.90;;;;;;5045022;28;20036;-72
2022/07/12 00:49:24;;;;;;;10.30;4.50;;;11.80;96.70;;;;;;5047893;28;20037;-72
2022/07/12 00:51:50;;;;;;;9.05;4.43;;;11.80;96.90;;;;;;5045881;28;20029;-72
2022/07/12 00:54:16;;;;;;;6.53;3.83;;;11.80;97.10;;;;;;5047655;28;20071;-72
2022/07/12 00:56:43;;;;;;;7.30;3.88;;;11.70;97.20;;;;;;5039749;28;20035;-72
2022/07/12 00:59:09;;;;;;;6.28;3.58;;;11.60;97.10;;;;;;5040482;28;20109;-72
2022/07/12 01:01:34;;;;;;;6.50;3.70;;;11.60;97.10;;;;;;5047139;28;20033;-72
2022/07/12 01:04:02;;;;;;;6.88;3.10;;;11.50;97.00;;;;;;5048034;28;20056;-72
2022/07/12 01:06:29;;;;;;;7.35;2.97;;;11.40;96.80;;;;;;5046539;28;20025;-72
2022/07/12 01:08:56;;;;;;;15.20;3.25;;;11.40;96.80;;;;;;5040190;28;20033;-72
2022/07/12 01:11:22;;;;;;;23.70;3.97;;;11.40;96.70;;;;;;5041312;28;20036;-72
2022/07/12 01:13:48;;;;;;;10.35;3.83;;;11.40;96.70;;;;;;5043089;28;20178;-72
2022/07/12 01:16:14;;;;;;;8.60;3.58;;;11.40;96.80;;;;;;5046362;28;20480;-72
2022/07/12 01:18:40;;;;;;;18.75;4.40;;;11.40;97.00;;;;;;5045489;28;20053;-72
2022/07/12 01:21:07;;;;;;;6.72;3.40;;;11.40;97.10;;;;;;5046677;28;20460;-72
2022/07/12 01:23:34;;;;;;;10.25;3.95;;;11.40;97.10;;;;;;5047741;28;20084;-72
2022/07/12 01:26:00;;;;;;;10.73;3.92;;;11.30;97.10;;;;;;5042950;28;20048;-72
2022/07/12 01:28:26;;;;;;;14.73;4.13;;;11.40;97.10;;;;;;5042522;28;20405;-72
2022/07/12 01:30:52;;;;;;;17.73;5.03;;;11.40;97.20;;;;;;5041995;28;20077;-72
2022/07/12 01:33:18;;;;;;;16.13;4.25;;;11.40;97.20;;;;;;5046170;28;20079;-72
2022/07/12 01:35:46;;;;;;;12.75;5.20;;;11.40;97.20;;;;;;5046732;28;20052;-72
2022/07/12 01:38:12;;;;;;;20.20;5.80;;;11.40;97.30;;;;;;5043068;28;20029;-72
2022/07/12 01:40:37;;;;;;;13.18;5.45;;;11.40;97.20;;;;;;5043094;28;20035;-72
2022/07/12 01:43:03;;;;;;;13.05;4.43;;;11.40;97.20;;;;;;5040193;28;20037;-72
2022/07/12 01:45:28;;;;;;;18.10;4.75;;;11.40;97.10;;;;;;5044343;28;20047;-72
2022/07/12 01:47:58;;;;;;;18.35;5.32;;;11.30;97.10;;;;;;5044485;28;20025;-72
2022/07/12 01:50:24;;;;;;;22.98;6.15;;;11.40;97.10;;;;;;5047916;28;20031;-72
2022/07/12 01:52:51;;;;;;;23.40;5.90;;;11.30;97.10;;;;;;5046168;28;20033;-72
2022/07/12 01:55:16;;;;;;;23.70;5.75;;;11.30;97.30;;;;;;5043277;28;20032;-72
2022/07/12 01:57:43;;;;;;;13.57;5.30;;;11.30;97.40;;;;;;5042536;28;20044;-72
2022/07/12 02:00:09;;;;;;;17.65;4.93;;;11.20;97.40;;;;;;5041409;28;20029;-72
2022/07/12 02:02:35;;;;;;;15.55;4.78;;;11.20;97.40;;;;;;5045436;28;20136;-72
2022/07/12 02:05:02;;;;;;;12.43;4.55;;;11.10;97.40;;;;;;5047114;28;20462;-72
2022/07/12 02:07:28;;;;;;;18.02;4.68;;;11.10;97.30;;;;;;5042827;28;20025;-72
2022/07/12 02:09:54;;;;;;;9.63;4.82;;;11.00;97.40;;;;;;5044570;28;20025;-72
2022/07/12 02:12:20;;;;;;;16.17;4.40;;;11.00;97.50;;;;;;5043333;28;20084;-72
2022/07/12 02:14:45;;;;;;;6.63;3.05;;;10.90;97.50;;;;;;5041160;28;20102;-72
2022/07/12 02:17:11;;;;;;;6.93;2.75;;;10.80;97.70;;;;;;5045760;28;20106;-72
2022/07/12 02:19:36;;;;;;;17.05;3.67;;;10.80;97.80;;;;;;5042368;28;20056;-72
2022/07/12 02:22:02;;;;;;;6.07;2.88;;;10.80;97.70;;;;;;5040803;28;20036;-72
2022/07/12 02:24:28;;;;;;;10.38;2.72;;;10.80;97.80;;;;;;5044380;28;20033;-72
2022/07/12 02:26:53;;;;;;;11.18;3.35;;;10.80;97.70;;;;;;5043126;28;20037;-72
2022/07/12 02:29:19;;;;;;;10.00;3.15;;;10.70;97.60;;;;;;5039183;28;20040;-72
2022/07/12 02:31:44;;;;;;;8.90;2.75;;;10.70;97.70;;;;;;5044646;28;20105;-72
2022/07/12 02:34:10;;;;;;;8.98;3.00;;;10.70;97.70;;;;;;5045236;28;20041;-72
2022/07/12 02:36:35;;;;;;;7.82;3.22;;;10.60;97.60;;;;;;5047149;28;20021;-72
2022/07/12 02:39:03;;;;;;;8.50;2.63;;;10.60;97.60;;;;;;5045348;28;20041;-72
2022/07/12 02:41:33;;;;;;;12.35;3.20;;;10.60;97.80;;;;;;5046834;28;20108;-72
2022/07/12 02:43:59;;;;;;;9.05;3.50;;;10.60;97.80;;;;;;5040148;28;20341;-72
2022/07/12 02:46:24;;;;;;;6.55;3.65;;;10.60;97.70;;;;;;5051149;28;20031;-72
2022/07/12 02:48:50;;;;;;;8.95;3.30;;;10.60;97.70;;;;;;5044554;28;20033;-72
2022/07/12 02:51:15;;;;;;;6.18;3.20;;;10.60;97.70;;;;;;5047970;28;20107;-72
2022/07/12 02:53:41;;;;;;;7.05;3.65;;;10.50;97.50;;;;;;5046601;28;20033;-72
2022/07/12 02:56:07;;;;;;;6.30;3.75;;;10.60;97.40;;;;;;5045912;28;20048;-72
2022/07/12 02:58:34;;;;;;;10.02;3.78;;;10.60;97.40;;;;;;5044261;28;20024;-72
2022/07/12 03:00:59;;;;;;;11.20;4.70;;;10.60;97.40;;;;;;5048650;28;20345;-72
2022/07/12 03:03:25;;;;;;;10.77;4.70;;;10.60;97.30;;;;;;5048812;28;20041;-72
2022/07/12 03:05:50;;;;;;;20.95;5.30;;;10.70;97.30;;;;;;5052214;28;20029;-72
2022/07/12 03:08:16;;;;;;;13.98;5.18;;;10.70;97.30;;;;;;5042257;28;20044;-72
2022/07/12 03:10:41;;;;;;;26.83;5.18;;;10.80;97.40;;;;;;5047361;28;20029;-72
2022/07/12 03:13:07;;;;;;;25.67;5.07;;;10.80;97.40;;;;;;5045307;28;20491;-72
2022/07/12 03:15:33;;;;;;;18.73;4.60;;;10.80;97.60;;;;;;5051394;28;20075;-72
2022/07/12 03:18:00;;;;;;;19.15;4.63;;;10.80;97.80;;;;;;5043148;28;20121;-72
2022/07/12 03:20:26;;;;;;;17.15;5.18;;;10.80;97.60;;;;;;5051185;28;20460;-72
2022/07/12 03:22:53;;;;;;;14.20;5.25;;;10.90;97.80;;;;;;5050465;28;20041;-72
2022/07/12 03:25:19;;;;;;;26.35;5.20;;;11.00;97.90;;;;;;5047145;28;20512;-72
2022/07/12 03:27:45;;;;;;;9.80;4.85;;;11.00;97.80;;;;;;5049055;28;20036;-72
2022/07/12 03:30:11;;;;;;;15.45;4.90;;;11.00;97.80;;;;;;5041965;28;20364;-72
2022/07/12 03:32:38;;;;;;;13.23;4.70;;;11.00;97.80;;;;;;5047809;28;20035;-72
2022/07/12 03:35:03;;;;;;;11.00;5.43;;;11.10;97.80;;;;;;5041623;28;20017;-72
2022/07/12 03:37:46;;;;;;;11.75;5.53;;;11.10;97.80;;;;;;5040367;28;20086;-71
2022/07/12 03:40:13;;;;;;;10.60;4.75;;;11.30;97.80;;;;;;5047116;28;20052;-71
2022/07/12 03:42:39;;;;;;;11.25;5.35;;;11.50;97.80;;;;;;5043696;28;20037;-71
2022/07/12 03:45:06;;;;;;;9.15;5.63;;;11.60;97.80;;;;;;5044474;28;20493;-72
2022/07/12 03:47:32;;;;;;;9.70;5.40;;;11.60;97.60;;;;;;5043407;28;20029;-72
2022/07/12 03:49:57;;;;;;;10.73;5.80;;;11.70;97.60;;;;;;5047647;28;20048;-71
2022/07/12 03:52:23;;;;;;;10.18;5.57;;;11.80;97.50;;;;;;5046223;28;20071;-72
2022/07/12 03:54:48;;;;;;;9.82;5.50;;;11.80;97.60;;;;;;5047885;28;20056;-72
2022/07/12 03:57:14;;;;;;;12.82;5.40;;;12.00;97.40;;;;;;5043531;28;20112;-73
2022/07/12 03:59:44;;;;;;;8.80;5.38;;;12.00;97.40;;;;;;5047767;28;20396;-72
2022/07/12 04:02:10;;;;;;;8.57;5.13;;;12.00;97.30;;;;;;5043747;28;20041;-72
2022/07/12 04:04:36;;;;;;;9.55;5.63;;;12.00;97.40;;;;;;5046121;28;20067;-72
2022/07/12 04:07:02;;;;;;;9.65;5.28;;;12.10;97.40;;;;;;5045361;28;20036;-72
2022/07/12 04:09:27;;;;;;;9.90;5.30;;;12.20;97.60;;;;;;5042127;28;20461;-73
2022/07/12 04:11:53;;;;;;;9.05;5.15;;;12.20;97.40;;;;;;5046324;28;20033;-73
2022/07/12 04:14:18;;;;;;;8.98;5.55;;;12.20;97.30;;;;;;5042918;28;20040;-72
2022/07/12 04:16:44;;;;;;;10.88;5.30;;;12.30;97.30;;;;;;5046068;28;20029;-73
2022/07/12 04:19:10;;;;;;;13.98;5.65;;;12.40;97.20;;;;;;5045251;28;20056;-71
2022/07/12 04:21:36;;;;;;;9.10;5.78;;;12.50;97.30;;;;;;5044253;28;20033;-70
2022/07/12 04:24:01;;;;;;;10.93;5.75;;;12.60;97.30;;;;;;5039072;28;20477;-71
2022/07/12 04:26:27;;;;;;;9.80;5.82;;;12.60;97.00;;;;;;5043550;28;20071;-71
2022/07/12 04:28:52;;;;;;;10.07;5.72;;;12.60;97.10;;;;;;5038798;28;20033;-69
2022/07/12 04:31:18;;;;;;;11.50;5.63;;;12.80;97.10;;;;;;5044804;28;20128;-70
2022/07/12 04:33:43;;;;;;;10.98;5.35;;;12.80;97.00;;;;;;5044317;28;20060;-70
2022/07/12 04:36:09;;;;;;;10.70;5.47;;;13.00;97.00;;;;;;5041663;28;20130;-69
2022/07/12 04:38:34;;;;;;;7.90;5.63;;;13.00;96.90;;;;;;5041186;28;20392;-70
2022/07/12 04:41:00;;;;;;;8.18;5.07;;;13.00;96.70;;;;;;5047187;28;20183;-70
2022/07/12 04:43:25;;;;;;;9.02;5.15;;;13.00;96.60;;;;;;5046911;28;20049;-70
2022/07/12 04:45:51;;;;;;;12.90;5.50;;;13.00;96.60;;;;;;5042877;28;20040;-70
2022/07/12 04:48:17;;;;;;;7.68;5.55;;;13.00;96.60;;;;;;5040854;28;20024;-71
2022/07/12 04:50:42;;;;;;;8.20;5.18;;;13.00;96.60;;;;;;5035852;28;20037;-71
2022/07/12 04:53:09;;;;;;;11.30;5.55;;;13.00;96.60;;;;;;5045991;28;20058;-71
2022/07/12 04:55:34;;;;;;;8.55;5.03;;;13.10;96.50;;;;;;5042717;28;20033;-71
2022/07/12 04:58:00;;;;;;;8.20;4.88;;;13.10;96.50;;;;;;5040704;28;20356;-71
2022/07/12 05:00:25;;;;;;;8.77;5.13;;;13.20;96.50;;;;;;5041203;28;20033;-71
2022/07/12 05:02:51;;;;;;;8.52;5.20;;;13.30;96.40;;;;;;5047535;28;20658;-71
2022/07/12 05:05:16;;;;;;;8.02;5.13;;;13.40;96.20;;;;;;5046933;28;20045;-71
2022/07/12 05:07:42;;;;;;;9.48;5.00;;;13.50;96.00;;;;;;5044439;28;22437;-71
2022/07/12 05:10:08;;;;;;;8.95;5.05;;;13.50;96.00;;;;;;5048696;28;20376;-71
2022/07/12 05:12:37;;;;;;;10.18;5.30;;;13.60;95.70;;;;;;5048140;28;20033;-71
2022/07/12 05:15:07;;;;;;;10.25;4.97;;;13.70;95.60;;;;;;5050588;28;20025;-71
2022/07/12 05:17:33;;;;;;;8.10;4.43;;;13.80;95.80;;;;;;5046744;28;20705;-71
2022/07/12 05:19:58;;;;;;;9.57;5.22;;;13.80;95.70;;;;;;5042070;28;20082;-71
2022/07/12 05:22:24;;;;;;;9.90;4.57;;;13.90;95.70;;;;;;5049980;28;20033;-71
2022/07/12 05:24:49;;;;;;;8.23;4.88;;;14.00;95.60;;;;;;5048585;28;20075;-71
2022/07/12 05:27:15;;;;;;;6.68;4.80;;;14.10;95.70;;;;;;5045748;28;20117;-71
2022/07/12 05:29:40;;;;;;;8.93;5.03;;;14.20;95.40;;;;;;5046502;28;20040;-71
2022/07/12 05:32:06;;;;;;;7.90;4.93;;;14.40;95.30;;;;;;5050410;28;20448;-71
2022/07/12 05:34:32;;;;;;;7.72;4.82;;;14.50;95.20;;;;;;5042909;28;20112;-71
2022/07/12 05:36:58;;;;;;;8.45;5.05;;;14.70;95.00;;;;;;5049049;28;20185;-71
2022/07/12 05:39:23;;;;;;;7.53;5.22;;;14.80;94.90;;;;;;5048281;28;20048;-71
2022/07/12 05:41:49;;;;;;;6.78;4.65;;;14.80;94.30;;;;;;5038606;28;20462;-71
2022/07/12 05:44:17;;;;;;;6.85;4.25;;;14.90;94.60;;;;;;5036391;28;20089;-71
2022/07/12 05:46:43;;;;;;;6.07;3.80;;;14.90;94.50;;;;;;5044309;28;20040;-71
2022/07/12 05:49:08;;;;;;;7.13;4.50;;;15.00;94.30;;;;;;5047313;28;20025;-71
2022/07/12 05:54:18;;;;;;;7.47;4.60;;;15.10;94.20;;;;;;5047330;28;20060;-71
2022/07/12 05:56:43;;;;;;;6.95;4.45;;;15.30;93.80;;;;;;5039473;28;20033;-71
2022/07/12 05:59:09;;;;;;;7.75;4.18;;;15.30;93.90;;;;;;5045378;28;20029;-71
2022/07/12 06:01:35;;;;;;;8.30;4.28;;;15.50;93.40;;;;;;5040197;28;20025;-71
2022/07/12 06:04:01;;;;;;;8.27;4.43;;;15.50;93.00;;;;;;5042497;28;20041;-71
2022/07/12 06:06:27;;;;;;;6.90;4.47;;;15.60;92.60;;;;;;5035106;28;20172;-71
2022/07/12 06:08:52;;;;;;;6.60;4.65;;;15.70;92.40;;;;;;5044397;28;20099;-71
2022/07/12 06:11:18;;;;;;;6.55;4.45;;;15.80;92.40;;;;;;5041599;28;20190;-71
2022/07/12 06:13:43;;;;;;;6.75;4.40;;;15.70;92.00;;;;;;5046228;28;20076;-71
2022/07/12 06:16:10;;;;;;;7.18;4.63;;;15.70;91.50;;;;;;5042837;28;20505;-71
2022/07/12 06:18:35;;;;;;;7.90;4.50;;;15.80;91.50;;;;;;5045907;28;20111;-71
2022/07/12 06:21:01;;;;;;;7.55;4.50;;;15.70;91.00;;;;;;5046446;28;20381;-71
2022/07/12 06:23:26;;;;;;;7.45;4.28;;;15.70;91.20;;;;;;5046974;28;20033;-71
2022/07/12 06:25:52;;;;;;;7.03;3.80;;;15.90;91.00;;;;;;5046426;28;20032;-71
2022/07/12 06:28:18;;;;;;;4.90;3.22;;;16.00;90.70;;;;;;5045121;28;20120;-71
2022/07/12 06:30:43;;;;;;;6.38;3.20;;;16.00;89.50;;;;;;5048680;28;20148;-71
2022/07/12 06:33:09;;;;;;;8.98;3.30;;;16.10;88.90;;;;;;5048307;28;20056;-71
2022/07/12 06:35:35;;;;;;;6.95;3.78;;;16.20;88.20;;;;;;5044422;28;20119;-71
2022/07/12 06:38:01;;;;;;;4.60;2.65;;;16.20;87.80;;;;;;5044931;28;20456;-71
2022/07/12 06:40:26;;;;;;;4.70;3.08;;;16.30;88.50;;;;;;5046076;28;20037;-72
2022/07/12 06:42:51;;;;;;;5.07;2.95;;;16.20;87.40;;;;;;5047120;28;20037;-71
2022/07/12 06:45:17;;;;;;;4.55;2.15;;;16.30;87.50;;;;;;5038996;28;20047;-71
2022/07/12 06:47:43;;;;;;;4.93;2.67;;;16.30;86.70;;;;;;5041970;28;20021;-71
2022/07/12 06:50:09;;;;;;;6.05;2.42;;;16.30;86.80;;;;;;5043926;28;20037;-71
2022/07/12 06:52:35;;;;;;;5.05;2.50;;;16.40;86.50;;;;;;5046077;28;20321;-71
2022/07/12 06:55:00;;;;;;;5.72;2.40;;;16.50;86.10;;;;;;5046323;28;20037;-72
2022/07/12 06:57:27;;;;;;;3.28;2.20;;;16.60;86.00;;;;;;5039245;28;20087;-71
2022/07/12 06:59:52;;;;;;;4.88;2.55;;;16.40;85.70;;;;;;5043701;28;20029;-72
2022/07/12 07:02:18;;;;;;;3.70;2.03;;;16.40;85.40;;;;;;5046300;28;20029;-72
2022/07/12 07:04:43;;;;;;;4.93;2.60;;;16.50;85.00;;;;;;5042855;28;20029;-72
2022/07/12 07:07:09;;;;;;;3.53;2.20;;;16.60;84.50;;;;;;5046264;28;20072;-71
2022/07/12 07:09:35;;;;;;;3.75;2.33;;;16.70;84.80;;;;;;5046134;28;20064;-72
2022/07/12 07:12:01;;;;;;;4.28;2.20;;;16.80;85.10;;;;;;5045351;28;20055;-72
2022/07/12 07:14:27;;;;;;;4.85;2.50;;;17.00;84.20;;;;;;5048095;28;20051;-72
2022/07/12 07:16:53;;;;;;;4.03;2.35;;;17.10;83.20;;;;;;5039098;28;20123;-72
2022/07/12 07:19:19;;;;;;;3.40;2.03;;;17.10;82.20;;;;;;5046054;28;20052;-72
2022/07/12 07:21:44;;;;;;;3.72;2.10;;;17.20;81.80;;;;;;5044318;28;20044;-72
2022/07/12 07:24:10;;;;;;;4.30;2.65;;;17.30;82.40;;;;;;5046771;28;20491;-72
2022/07/12 07:26:35;;;;;;;4.68;2.42;;;17.30;81.90;;;;;;5044151;28;20043;-72
2022/07/12 07:31:45;;;;;;;3.65;2.38;;;17.10;83.00;;;;;;5048105;28;20222;-72
2022/07/12 07:34:11;;;;;;;5.47;2.40;;;17.10;82.90;;;;;;5047739;28;20036;-72
2022/07/12 07:36:37;;;;;;;3.35;2.35;;;17.00;82.60;;;;;;5048487;28;20051;-72
2022/07/12 07:39:02;;;;;;;4.65;2.40;;;17.00;83.30;;;;;;5041789;28;20437;-72
2022/07/12 07:41:28;;;;;;;4.65;2.33;;;16.90;82.90;;;;;;5045514;28;20132;-72
2022/07/12 07:43:54;;;;;;;5.25;2.67;;;16.80;82.90;;;;;;5041833;28;20039;-72
2022/07/12 07:46:19;;;;;;;3.85;2.20;;;17.00;83.70;;;;;;5048531;28;20437;-72
2022/07/12 07:48:44;;;;;;;3.25;1.98;;;17.40;83.00;;;;;;5047395;28;20029;-72
2022/07/12 07:51:10;;;;;;;3.85;2.50;;;18.00;81.80;;;;;;5047489;28;20615;-72
2022/07/12 07:53:36;;;;;;;4.70;2.75;;;18.60;80.50;;;;;;5046312;28;20095;-72
2022/07/12 07:56:01;;;;;;;5.90;2.60;;;18.90;78.50;;;;;;5039175;28;20036;-72
2022/07/12 07:58:27;;;;;;;6.85;2.30;;;19.40;76.90;;;;;;5047404;28;20128;-72
2022/07/12 08:00:53;;;;;;;4.32;2.10;;;19.60;76.70;;;;;;5051412;28;20025;-72
2022/07/12 08:03:20;;;;;;;4.05;2.10;;;19.10;75.00;;;;;;5051048;28;20048;-72
2022/07/12 08:05:46;;;;;;;3.25;2.08;;;19.00;77.00;;;;;;5049419;28;20456;-72
2022/07/12 08:08:12;;;;;;;3.38;1.85;;;19.10;76.50;;;;;;5050717;28;20048;-72
2022/07/12 08:10:37;;;;;;;3.67;2.30;;;18.80;76.90;;;;;;5050128;28;20049;-72
2022/07/12 08:13:03;;;;;;;3.63;2.30;;;19.20;77.00;;;;;;5052537;28;20040;-72
2022/07/12 08:15:29;;;;;;;6.43;2.90;;;19.20;77.10;;;;;;5056268;28;20374;-72
2022/07/12 08:17:55;;;;;;;5.20;2.50;;;19.40;75.70;;;;;;5055103;28;20028;-72
2022/07/12 08:20:22;;;;;;;3.55;2.15;;;19.50;74.80;;;;;;5044002;28;20053;-72
2022/07/12 08:22:48;;;;;;;3.63;2.40;;;19.80;75.40;;;;;;5055701;28;20129;-72
2022/07/12 08:25:13;;;;;;;3.78;2.03;;;19.90;75.60;;;;;;5043908;28;20055;-72
2022/07/12 08:27:39;;;;;;;5.30;2.50;;;19.60;74.40;;;;;;5045782;28;20037;-72
2022/07/12 08:30:06;;;;;;;3.90;2.70;;;19.60;74.30;;;;;;5040277;28;20044;-69
2022/07/12 08:32:31;;;;;;;3.65;2.65;;;19.40;74.50;;;;;;5040795;28;20116;-69
2022/07/12 08:34:57;;;;;;;4.78;2.45;;;19.50;74.60;;;;;;5041960;28;20088;-69
2022/07/12 08:37:22;;;;;;;5.22;2.85;;;19.60;73.80;;;;;;5049444;28;20192;-69
2022/07/12 08:39:48;;;;;;;4.43;2.60;;;19.70;74.90;;;;;;5044970;28;20043;-69
2022/07/12 08:42:18;;;;;;;3.53;2.30;;;19.70;74.30;;;;;;5046289;28;20408;-69
2022/07/12 08:44:44;;;;;;;3.17;2.70;;;19.50;73.60;;;;;;5037777;28;20040;-69
2022/07/12 08:47:10;;;;;;;4.93;2.75;;;19.60;73.20;;;;;;5048909;28;20033;-69
2022/07/12 08:49:36;;;;;;;5.00;2.80;;;19.50;74.30;;;;;;5048950;28;20067;-69
2022/07/12 08:52:26;;;;;;;4.57;2.70;;;19.90;74.30;;;;;;5047309;28;20033;-69
2022/07/12 08:54:52;;;;;;;4.18;2.50;;;19.90;73.10;;;;;;5036352;28;20033;-70
2022/07/12 08:57:31;;;;;;;3.85;2.70;;;19.70;73.60;;;;;;5049886;28;20032;-70
2022/07/12 09:00:00;;;;;;;3.42;2.65;;;19.90;73.30;;;;;;5048019;28;20025;-69
2022/07/12 09:02:26;;;;;;;4.35;2.88;;;19.90;74.00;;;;;;5050711;28;20033;-69
2022/07/12 09:05:08;;;;;;;5.18;3.17;;;20.00;73.00;;;;;;5046675;28;20041;-69
2022/07/12 09:07:37;;;;;;;4.75;3.08;;;20.10;71.90;;;;;;5047230;28;20464;-69
2022/07/12 09:10:06;;;;;;;3.92;2.65;;;20.30;71.10;;;;;;5043722;28;20037;-69
2022/07/12 09:12:36;;;;;;;4.32;3.15;;;20.90;71.90;;;;;;5049793;28;20079;-69
2022/07/12 09:15:21;;;;;;;6.70;3.15;;;20.90;70.90;;;;;;5045239;28;20104;-70
2022/07/12 09:18:13;;;;;;;5.95;3.28;;;21.00;69.20;;;;;;5040805;28;20498;-69
2022/07/12 09:20:40;;;;;;;6.57;3.38;;;21.00;68.80;;;;;;5045342;28;20087;-69
2022/07/12 09:23:09;;;;;;;8.40;3.08;;;21.00;68.80;;;;;;5048454;28;20041;-69
2022/07/12 09:25:36;;;;;;;6.03;2.67;;;21.30;68.40;;;;;;5032684;28;20051;-69
2022/07/12 09:28:07;;;;;;;4.28;3.03;;;21.00;68.00;;;;;;5040288;28;20079;-69
2022/07/12 09:30:36;;;;;;;4.20;3.08;;;21.20;67.10;;;;;;5046667;28;20036;-69
2022/07/12 09:36:07;;;;;;;5.50;3.22;;;21.60;65.50;;;;;;5049122;28;20110;-69
2022/07/12 09:38:35;;;;;;;6.00;2.80;;;21.50;66.00;;;;;;5048683;28;20036;-70
2022/07/12 09:41:00;;;;;;;3.70;2.75;;;22.10;65.40;;;;;;5038031;28;20039;-69
2022/07/12 09:43:27;;;;;;;5.70;3.00;;;22.00;64.50;;;;;;5046805;28;20037;-70
2022/07/12 09:45:53;;;;;;;4.18;3.00;;;22.00;64.00;;;;;;5044697;28;20413;-70
2022/07/12 09:48:22;;;;;;;4.40;3.05;;;22.10;64.50;;;;;;5048040;28;20475;-69
2022/07/12 09:50:51;;;;;;;5.72;3.13;;;22.00;62.60;;;;;;5045139;28;20025;-69
2022/07/12 09:53:43;;;;;;;3.65;2.72;;;22.10;62.70;;;;;;5045565;28;20086;-70
2022/07/12 09:56:11;;;;;;;5.38;3.78;;;22.00;63.30;;;;;;5035546;28;20044;-70
2022/07/12 09:58:57;;;;;;;5.03;3.58;;;22.00;64.40;;;;;;5043846;28;20082;-70
2022/07/12 10:01:24;;;;;;;4.75;3.22;;;22.10;63.20;;;;;;5042850;28;20064;-70
2022/07/12 10:03:51;;;;;;;5.22;3.35;;;22.30;62.70;;;;;;5049132;28;20037;-70
2022/07/12 10:06:28;;;;;;;6.07;4.05;;;22.10;62.60;;;;;;5046855;28;20029;-70
2022/07/12 10:08:55;;;;;;;4.72;3.60;;;22.30;62.50;;;;;;5048217;28;20389;-70
2022/07/12 10:11:23;;;;;;;5.35;4.28;;;22.70;61.60;;;;;;5038944;28;20119;-70
2022/07/12 10:13:49;;;;;;;6.93;4.80;;;22.80;61.50;;;;;;5044791;28;20044;-70
2022/07/12 10:16:18;;;;;;;4.95;3.78;;;22.70;62.00;;;;;;5043948;28;20040;-70
2022/07/12 10:18:43;;;;;;;3.72;2.95;;;22.70;62.30;;;;;;5048755;28;20068;-70
2022/07/12 10:21:22;;;;;;;4.28;3.05;;;22.80;58.20;;;;;;5049598;28;20029;-70
2022/07/12 10:23:47;;;;;;;5.15;3.47;;;22.90;59.30;;;;;;5046907;28;20044;-70
2022/07/12 10:26:16;;;;;;;4.88;3.45;;;23.50;58.40;;;;;;5045890;28;20037;-70
2022/07/12 10:29:09;;;;;;;4.53;3.42;;;23.30;58.00;;;;;;5046000;28;20033;-70
2022/07/12 10:31:37;;;;;;;5.70;4.03;;;23.50;58.30;;;;;;5044634;28;20025;-70
2022/07/12 10:34:09;;;;;;;4.47;3.20;;;23.70;57.60;;;;;;5047536;28;20045;-70
2022/07/12 10:36:53;;;;;;;5.57;3.42;;;23.90;57.60;;;;;;5046561;28;20136;-70
2022/07/12 10:39:19;;;;;;;4.40;2.95;;;24.20;56.00;;;;;;5047966;28;20124;-70
2022/07/12 10:42:07;;;;;;;5.85;3.70;;;24.50;56.80;;;;;;5044030;28;20060;-70
2022/07/12 10:44:38;;;;;;;4.95;3.80;;;24.40;53.80;;;;;;5046485;28;20041;-70
2022/07/12 10:47:07;;;;;;;5.28;3.78;;;24.50;55.50;;;;;;5044373;28;20415;-70
2022/07/12 10:49:35;;;;;;;4.60;3.45;;;24.40;55.20;;;;;;5044202;28;20056;-70
2022/07/12 10:52:10;;;;;;;4.50;3.47;;;24.40;56.00;;;;;;5048486;28;20029;-70
2022/07/12 10:54:55;;;;;;;5.22;3.28;;;24.70;56.40;;;;;;5045506;28;20028;-70
2022/07/12 10:57:43;;;;;;;4.80;3.53;;;25.30;55.50;;;;;;5033728;28;20043;-70
2022/07/12 11:00:10;;;;;;;4.68;3.80;;;25.00;53.40;;;;;;5045937;28;20364;-70
2022/07/12 11:02:36;;;;;;;5.00;3.80;;;24.60;55.20;;;;;;5048444;28;20041;-70
2022/07/12 11:05:01;;;;;;;4.82;4.05;;;24.80;55.50;;;;;;5049499;28;20040;-70
2022/07/12 11:07:27;;;;;;;4.43;3.28;;;24.40;56.70;;;;;;5050139;28;20033;-70
2022/07/12 11:09:55;;;;;;;5.35;3.40;;;25.10;54.70;;;;;;5050334;28;20235;-70
2022/07/12 11:12:27;;;;;;;4.40;3.25;;;25.30;54.70;;;;;;5053519;28;20063;-70
2022/07/12 11:14:53;;;;;;;4.43;3.70;;;25.30;55.10;;;;;;5049307;28;20172;-70
2022/07/12 11:17:24;;;;;;;6.60;4.40;;;25.00;53.60;;;;;;5049857;28;20535;-70
2022/07/12 11:20:02;;;;;;;5.03;3.85;;;25.10;53.00;;;;;;5048352;28;20089;-70
2022/07/12 11:22:28;;;;;;;4.03;3.17;;;25.10;54.70;;;;;;5044641;28;20056;-70
2022/07/12 11:24:54;;;;;;;4.95;4.07;;;25.60;52.60;;;;;;5050227;28;20041;-70
2022/07/12 11:27:20;;;;;;;6.97;4.15;;;25.80;53.60;;;;;;5045826;28;20029;-70
2022/07/12 11:30:01;;;;;;;5.60;4.78;;;25.10;52.60;;;;;;5048008;28;20034;-70
2022/07/12 11:32:40;;;;;;;5.32;4.18;;;24.90;54.80;;;;;;5050190;28;20426;-70
2022/07/12 11:35:19;;;;;;;6.53;4.55;;;25.20;54.20;;;;;;5039710;28;20449;-70
2022/07/12 11:37:55;;;;;;;5.28;4.13;;;25.10;54.10;;;;;;5052275;28;20025;-70
2022/07/12 11:40:22;;;;;;;6.20;4.15;;;25.10;54.70;;;;;;5048971;28;20115;-70
2022/07/12 11:42:55;;;;;;;5.20;4.18;;;25.10;54.30;;;;;;5050079;28;20047;-70
2022/07/12 11:45:21;;;;;;;6.72;4.22;;;25.50;53.30;;;;;;5051748;28;20037;-70
2022/07/12 11:47:46;;;;;;;6.20;4.10;;;25.90;53.20;;;;;;5050238;28;20471;-70
2022/07/12 11:50:17;;;;;;;7.28;3.92;;;26.40;52.70;;;;;;5048071;28;20092;-70
2022/07/12 11:52:43;;;;;;;6.20;4.22;;;25.80;52.70;;;;;;5047946;28;20066;-70
2022/07/12 11:55:08;;;;;;;6.05;4.07;;;26.00;52.30;;;;;;5047178;28;20048;-70
2022/07/12 11:57:34;;;;;;;5.28;4.18;;;25.90;52.60;;;;;;5047936;28;20329;-70
2022/07/12 12:00:14;;;;;;;5.07;4.22;;;25.70;51.30;;;;;;5047800;28;20125;-70
2022/07/12 12:02:39;;;;;;;6.07;4.53;;;26.00;51.90;;;;;;5051093;28;20029;-70
2022/07/12 12:05:05;;;;;;;6.28;4.40;;;26.10;51.20;;;;;;5050735;28;20029;-70
2022/07/12 12:07:31;;;;;;;5.50;4.65;;;26.80;51.70;;;;;;5048935;28;20051;-70
2022/07/12 12:10:03;;;;;;;6.22;4.45;;;26.60;51.40;;;;;;5043865;28;20025;-71
2022/07/12 12:12:46;;;;;;;5.63;4.25;;;27.40;50.70;;;;;;5045612;28;20044;-70
2022/07/12 12:15:17;;;;;;;6.55;4.78;;;26.90;49.90;;;;;;5048883;28;20021;-70
2022/07/12 12:17:51;;;;;;;7.28;4.15;;;26.50;52.00;;;;;;5043679;28;20472;-70
2022/07/12 12:20:18;;;;;;;5.25;3.92;;;26.60;51.80;;;;;;5042396;28;20125;-70
2022/07/12 12:22:46;;;;;;;6.32;4.28;;;26.80;50.90;;;;;;5046989;28;20032;-70
2022/07/12 12:25:13;;;;;;;4.95;4.05;;;26.70;51.90;;;;;;5041234;28;20032;-70
2022/07/12 12:27:43;;;;;;;5.43;3.95;;;26.80;52.60;;;;;;5040701;28;20483;-70
2022/07/12 12:30:09;;;;;;;6.18;4.60;;;26.90;51.80;;;;;;5049483;28;20025;-70
2022/07/12 12:32:47;;;;;;;5.47;4.13;;;27.10;50.70;;;;;;5050134;28;20155;-71
2022/07/12 12:35:14;;;;;;;4.50;3.65;;;27.90;50.80;;;;;;5051913;28;20089;-71
2022/07/12 12:37:40;;;;;;;4.00;3.10;;;27.50;50.00;;;;;;5056803;28;20120;-71
2022/07/12 12:40:07;;;;;;;5.78;3.55;;;27.40;49.60;;;;;;5046566;28;20112;-71
2022/07/12 12:42:32;;;;;;;4.07;2.90;;;27.30;50.10;;;;;;5042561;28;20329;-71
2022/07/12 12:44:58;;;;;;;4.05;2.83;;;28.10;47.90;;;;;;5044899;28;20043;-71
2022/07/12 12:47:34;;;;;;;4.45;3.05;;;28.20;48.80;;;;;;5048121;28;20025;-71
2022/07/12 12:50:00;;;;;;;6.25;3.00;;;28.20;49.40;;;;;;5041249;28;20425;-71
2022/07/12 12:52:27;;;;;;;3.15;2.67;;;27.70;49.20;;;;;;5045984;28;20476;-71
2022/07/12 12:54:54;;;;;;;3.40;2.40;;;28.30;48.30;;;;;;5045181;28;20025;-71